sensor_id;sensor_type;location;lat;lon;timestamp;pressure;altitude;pressure_sealevel;temperature;humidity
52625;BME280;38519;52.540;13.410;2023-01-10T00:00:35;99971.84;;;6.77;100.00
52625;BME280;38519;52.540;13.410;2023-01-10T00:03:05;99971.72;;;6.75;100.00
52625;BME280;38519;52.540;13.410;2023-01-10T00:05:31;99976.66;;;6.72;100.00
52625;BME280;38519;52.540;13.410;2023-01-10T00:07:57;99982.44;;;6.68;100.00
52625;BME280;38519;52.540;13.410;2023-01-10T00:10:23;99981.63;;;6.69;100.00
52625;BME280;38519;52.540;13.410;2023-01-10T00:12:48;99988.16;;;6.64;100.00
52625;BME280;38519;52.540;13.410;2023-01-10T00:15:32;99982.50;;;6.57;100.00
52625;BME280;38519;52.540;13.410;2023-01-10T00:17:58;100002.00;;;6.52;100.00
52625;BME280;38519;52.540;13.410;2023-01-10T00:20:23;100000.06;;;6.50;100.00
52625;BME280;38519;52.540;13.410;2023-01-10T00:22:48;99994.09;;;6.51;100.00
52625;BME280;38519;52.540;13.410;2023-01-10T00:25:14;100003.13;;;6.56;100.00
52625;BME280;38519;52.540;13.410;2023-01-10T00:27:40;99998.06;;;6.57;100.00
52625;BME280;38519;52.540;13.410;2023-01-10T00:30:06;100010.78;;;6.54;100.00
52625;BME280;38519;52.540;13.410;2023-01-10T00:32:42;100009.13;;;6.55;100.00
52625;BME280;38519;52.540;13.410;2023-01-10T00:35:07;100006.41;;;6.53;100.00
52625;BME280;38519;52.540;13.410;2023-01-10T00:37:33;100012.59;;;6.55;100.00
52625;BME280;38519;52.540;13.410;2023-01-10T00:39:58;100005.59;;;6.54;100.00
52625;BME280;38519;52.540;13.410;2023-01-10T00:42:24;100009.78;;;6.52;100.00
52625;BME280;38519;52.540;13.410;2023-01-10T00:45:07;100013.81;;;6.49;100.00
52625;BME280;38519;52.540;13.410;2023-01-10T00:47:33;100024.31;;;6.50;100.00
52625;BME280;38519;52.540;13.410;2023-01-10T00:49:58;100020.91;;;6.51;100.00
52625;BME280;38519;52.540;13.410;2023-01-10T00:52:23;100029.75;;;6.53;100.00
52625;BME280;38519;52.540;13.410;2023-01-10T00:54:49;100027.94;;;6.52;100.00
52625;BME280;38519;52.540;13.410;2023-01-10T00:57:14;100035.34;;;6.48;100.00
52625;BME280;38519;52.540;13.410;2023-01-10T00:59:39;100031.38;;;6.41;100.00
52625;BME280;38519;52.540;13.410;2023-01-10T01:02:04;100032.63;;;6.46;100.00
52625;BME280;38519;52.540;13.410;2023-01-10T01:04:30;100036.00;;;6.45;100.00
52625;BME280;38519;52.540;13.410;2023-01-10T01:06:58;100044.34;;;6.41;100.00
52625;BME280;38519;52.540;13.410;2023-01-10T01:09:24;100050.66;;;6.45;100.00
52625;BME280;38519;52.540;13.410;2023-01-10T01:11:49;100055.09;;;6.46;100.00
52625;BME280;38519;52.540;13.410;2023-01-10T01:14:14;100060.63;;;6.28;100.00
52625;BME280;38519;52.540;13.410;2023-01-10T01:16:40;100058.09;;;6.40;100.00
52625;BME280;38519;52.540;13.410;2023-01-10T01:19:05;100064.31;;;6.42;100.00
52625;BME280;38519;52.540;13.410;2023-01-10T01:21:30;100065.88;;;6.40;100.00
52625;BME280;38519;52.540;13.410;2023-01-10T01:23:56;100067.97;;;6.34;100.00
52625;BME280;38519;52.540;13.410;2023-01-10T01:26:24;100073.47;;;6.27;100.00
52625;BME280;38519;52.540;13.410;2023-01-10T01:28:50;100081.81;;;6.12;100.00
52625;BME280;38519;52.540;13.410;2023-01-10T01:31:15;100084.41;;;6.12;100.00
52625;BME280;38519;52.540;13.410;2023-01-10T01:33:41;100091.69;;;6.16;100.00
52625;BME280;38519;52.540;13.410;2023-01-10T01:36:07;100093.22;;;6.14;100.00
52625;BME280;38519;52.540;13.410;2023-01-10T01:38:33;100099.22;;;6.03;100.00
52625;BME280;38519;52.540;13.410;2023-01-10T01:40:58;100114.13;;;5.95;100.00
52625;BME280;38519;52.540;13.410;2023-01-10T01:43:28;100121.88;;;5.95;100.00
52625;BME280;38519;52.540;13.410;2023-01-10T01:45:54;100128.13;;;5.87;100.00
52625;BME280;38519;52.540;13.410;2023-01-10T01:48:56;100134.63;;;5.92;100.00
52625;BME280;38519;52.540;13.410;2023-01-10T01:51:16;100137.31;;;5.94;100.00
52625;BME280;38519;52.540;13.410;2023-01-10T01:53:50;100142.78;;;5.97;100.00
52625;BME280;38519;52.540;13.410;2023-01-10T01:58:44;100138.53;;;5.97;100.00
52625;BME280;38519;52.540;13.410;2023-01-10T02:01:10;100137.72;;;5.98;100.00
52625;BME280;38519;52.540;13.410;2023-01-10T02:03:37;100139.28;;;5.96;100.00
52625;BME280;38519;52.540;13.410;2023-01-10T02:06:03;100139.41;;;5.98;100.00
52625;BME280;38519;52.540;13.410;2023-01-10T02:08:28;100146.28;;;5.97;100.00
52625;BME280;38519;52.540;13.410;2023-01-10T02:11:02;100141.22;;;5.89;100.00
52625;BME280;38519;52.540;13.410;2023-01-10T02:13:30;100149.53;;;5.84;100.00
52625;BME280;38519;52.540;13.410;2023-01-10T02:15:58;100154.06;;;5.77;100.00
52625;BME280;38519;52.540;13.410;2023-01-10T02:18:24;100164.06;;;5.72;100.00
52625;BME280;38519;52.540;13.410;2023-01-10T02:26:03;100165.75;;;5.61;100.00
52625;BME280;38519;52.540;13.410;2023-01-10T02:41:41;100180.16;;;5.47;100.00
52625;BME280;38519;52.540;13.410;2023-01-10T02:44:11;100187.25;;;5.50;100.00
52625;BME280;38519;52.540;13.410;2023-01-10T02:46:38;100189.97;;;5.52;100.00
52625;BME280;38519;52.540;13.410;2023-01-10T02:49:04;100192.84;;;5.44;100.00
52625;BME280;38519;52.540;13.410;2023-01-10T02:51:30;100195.91;;;5.40;100.00
52625;BME280;38519;52.540;13.410;2023-01-10T02:54:00;100200.56;;;5.34;100.00
52625;BME280;38519;52.540;13.410;2023-01-10T02:59:05;100206.16;;;5.39;100.00
52625;BME280;38519;52.540;13.410;2023-01-10T03:09:09;100211.06;;;5.66;100.00
52625;BME280;38519;52.540;13.410;2023-01-10T03:11:38;100221.41;;;5.66;100.00
52625;BME280;38519;52.540;13.410;2023-01-10T03:14:24;100230.00;;;5.65;100.00
52625;BME280;38519;52.540;13.410;2023-01-10T03:16:56;100235.81;;;5.53;100.00
52625;BME280;38519;52.540;13.410;2023-01-10T03:19:23;100237.88;;;5.57;100.00
52625;BME280;38519;52.540;13.410;2023-01-10T03:21:50;100243.97;;;5.57;100.00
52625;BME280;38519;52.540;13.410;2023-01-10T03:24:22;100250.81;;;5.57;100.00
52625;BME280;38519;52.540;13.410;2023-01-10T03:26:57;100260.53;;;5.70;100.00
52625;BME280;38519;52.540;13.410;2023-01-10T03:29:26;100261.59;;;5.72;100.00
52625;BME280;38519;52.540;13.410;2023-01-10T03:31:54;100276.59;;;5.76;100.00
52625;BME280;38519;52.540;13.410;2023-01-10T03:34:20;100280.13;;;5.76;100.00
52625;BME280;38519;52.540;13.410;2023-01-10T03:36:49;100293.44;;;5.81;100.00
52625;BME280;38519;52.540;13.410;2023-01-10T03:39:24;100300.31;;;5.80;100.00
52625;BME280;38519;52.540;13.410;2023-01-10T03:44:37;100302.81;;;5.89;100.00
52625;BME280;38519;52.540;13.410;2023-01-10T03:47:18;100298.66;;;5.91;100.00
52625;BME280;38519;52.540;13.410;2023-01-10T03:49:47;100312.50;;;5.92;100.00
52625;BME280;38519;52.540;13.410;2023-01-10T03:52:14;100312.63;;;5.93;100.00
52625;BME280;38519;52.540;13.410;2023-01-10T03:54:41;100319.78;;;5.96;100.00
52625;BME280;38519;52.540;13.410;2023-01-10T03:57:06;100319.94;;;5.97;100.00
52625;BME280;38519;52.540;13.410;2023-01-10T03:59:32;100329.91;;;6.03;100.00
52625;BME280;38519;52.540;13.410;2023-01-10T04:01:57;100329.13;;;6.04;100.00
52625;BME280;38519;52.540;13.410;2023-01-10T04:04:22;100336.38;;;6.08;100.00
52625;BME280;38519;52.540;13.410;2023-01-10T04:06:48;100345.19;;;6.00;100.00
52625;BME280;38519;52.540;13.410;2023-01-10T04:09:13;100355.00;;;5.94;100.00
52625;BME280;38519;52.540;13.410;2023-01-10T04:11:38;100354.22;;;5.95;100.00
52625;BME280;38519;52.540;13.410;2023-01-10T04:14:04;100354.22;;;5.95;100.00
52625;BME280;38519;52.540;13.410;2023-01-10T04:16:29;100363.31;;;6.00;100.00
52625;BME280;38519;52.540;13.410;2023-01-10T04:18:54;100364.38;;;6.02;100.00
52625;BME280;38519;52.540;13.410;2023-01-10T04:21:19;100379.25;;;5.94;100.00
52625;BME280;38519;52.540;13.410;2023-01-10T04:23:45;100380.53;;;5.89;100.00
52625;BME280;38519;52.540;13.410;2023-01-10T04:26:10;100389.97;;;5.89;100.00
52625;BME280;38519;52.540;13.410;2023-01-10T04:28:36;100389.47;;;5.93;100.00
52625;BME280;38519;52.540;13.410;2023-01-10T04:31:01;100403.75;;;5.98;100.00
52625;BME280;38519;52.540;13.410;2023-01-10T04:33:26;100411.66;;;5.99;100.00
52625;BME280;38519;52.540;13.410;2023-01-10T04:35:53;100410.25;;;6.03;100.00
52625;BME280;38519;52.540;13.410;2023-01-10T04:38:18;100409.09;;;5.99;100.00
52625;BME280;38519;52.540;13.410;2023-01-10T04:40:44;100407.13;;;5.97;100.00
52625;BME280;38519;52.540;13.410;2023-01-10T04:43:15;100415.13;;;5.90;100.00
52625;BME280;38519;52.540;13.410;2023-01-10T04:45:41;100424.69;;;5.80;100.00
52625;BME280;38519;52.540;13.410;2023-01-10T04:48:07;100429.88;;;5.80;100.00
52625;BME280;38519;52.540;13.410;2023-01-10T04:50:32;100419.91;;;5.85;100.00
52625;BME280;38519;52.540;13.410;2023-01-10T04:52:57;100437.63;;;5.80;100.00
52625;BME280;38519;52.540;13.410;2023-01-10T04:55:22;100450.88;;;5.83;100.00
52625;BME280;38519;52.540;13.410;2023-01-10T04:57:48;100451.88;;;5.75;100.00
52625;BME280;38519;52.540;13.410;2023-01-10T05:00:13;100454.75;;;5.78;100.00
52625;BME280;38519;52.540;13.410;2023-01-10T05:02:38;100464.97;;;5.87;100.00
52625;BME280;38519;52.540;13.410;2023-01-10T05:05:08;100471.91;;;5.97;100.00
52625;BME280;38519;52.540;13.410;2023-01-10T05:07:33;100485.00;;;5.98;100.00
52625;BME280;38519;52.540;13.410;2023-01-10T05:09:59;100481.38;;;5.96;100.00
52625;BME280;38519;52.540;13.410;2023-01-10T05:12:24;100475.25;;;5.96;100.00
52625;BME280;38519;52.540;13.410;2023-01-10T05:14:49;100484.09;;;5.98;100.00
52625;BME280;38519;52.540;13.410;2023-01-10T05:17:14;100493.28;;;5.94;100.00
52625;BME280;38519;52.540;13.410;2023-01-10T05:19:39;100497.41;;;5.92;100.00
52625;BME280;38519;52.540;13.410;2023-01-10T05:22:05;100500.25;;;5.95;100.00
52625;BME280;38519;52.540;13.410;2023-01-10T05:24:30;100511.75;;;5.89;100.00
52625;BME280;38519;52.540;13.410;2023-01-10T05:26:55;100513.59;;;5.90;100.00
52625;BME280;38519;52.540;13.410;2023-01-10T05:29:21;100520.09;;;5.95;100.00
52625;BME280;38519;52.540;13.410;2023-01-10T05:31:46;100526.34;;;5.97;100.00
52625;BME280;38519;52.540;13.410;2023-01-10T05:34:14;100524.00;;;6.00;100.00
52625;BME280;38519;52.540;13.410;2023-01-10T05:36:39;100526.59;;;6.00;100.00
52625;BME280;38519;52.540;13.410;2023-01-10T05:39:04;100542.16;;;6.00;100.00
52625;BME280;38519;52.540;13.410;2023-01-10T05:41:30;100539.97;;;6.05;100.00
52625;BME280;38519;52.540;13.410;2023-01-10T05:43:55;100545.69;;;6.00;100.00
52625;BME280;38519;52.540;13.410;2023-01-10T05:46:20;100552.31;;;6.07;100.00
52625;BME280;38519;52.540;13.410;2023-01-10T05:48:46;100562.69;;;6.07;100.00
52625;BME280;38519;52.540;13.410;2023-01-10T05:51:11;100557.34;;;6.06;100.00
52625;BME280;38519;52.540;13.410;2023-01-10T05:53:36;100572.00;;;6.05;100.00
52625;BME280;38519;52.540;13.410;2023-01-10T05:56:02;100569.78;;;6.10;100.00
52625;BME280;38519;52.540;13.410;2023-01-10T05:58:28;100575.13;;;6.11;100.00
52625;BME280;38519;52.540;13.410;2023-01-10T06:00:55;100581.84;;;6.09;100.00
52625;BME280;38519;52.540;13.410;2023-01-10T06:03:20;100579.38;;;6.00;100.00
52625;BME280;38519;52.540;13.410;2023-01-10T06:05:46;100586.63;;;6.05;100.00
52625;BME280;38519;52.540;13.410;2023-01-10T06:08:11;100585.22;;;6.08;100.00
52625;BME280;38519;52.540;13.410;2023-01-10T06:10:36;100595.84;;;6.11;100.00
52625;BME280;38519;52.540;13.410;2023-01-10T06:13:02;100599.25;;;6.10;100.00
52625;BME280;38519;52.540;13.410;2023-01-10T06:15:29;100611.53;;;6.13;100.00
52625;BME280;38519;52.540;13.410;2023-01-10T06:17:54;100623.06;;;6.06;100.00
52625;BME280;38519;52.540;13.410;2023-01-10T06:20:19;100627.41;;;5.97;100.00
52625;BME280;38519;52.540;13.410;2023-01-10T06:22:45;100630.28;;;6.00;100.00
52625;BME280;38519;52.540;13.410;2023-01-10T06:25:10;100628.09;;;6.05;100.00
52625;BME280;38519;52.540;13.410;2023-01-10T06:27:37;100626.16;;;6.02;100.00
52625;BME280;38519;52.540;13.410;2023-01-10T06:30:03;100641.31;;;5.97;100.00
52625;BME280;38519;52.540;13.410;2023-01-10T06:32:29;100630.34;;;5.91;100.00
52625;BME280;38519;52.540;13.410;2023-01-10T06:34:54;100638.59;;;5.87;100.00
52625;BME280;38519;52.540;13.410;2023-01-10T06:37:19;100642.59;;;5.83;100.00
52625;BME280;38519;52.540;13.410;2023-01-10T06:39:45;100647.22;;;5.77;100.00
52625;BME280;38519;52.540;13.410;2023-01-10T06:42:10;100653.72;;;5.82;100.00
52625;BME280;38519;52.540;13.410;2023-01-10T06:44:35;100656.88;;;5.89;100.00
52625;BME280;38519;52.540;13.410;2023-01-10T06:47:01;100655.22;;;5.89;100.00
52625;BME280;38519;52.540;13.410;2023-01-10T06:49:26;100662.47;;;6.02;100.00
52625;BME280;38519;52.540;13.410;2023-01-10T06:51:51;100667.13;;;6.06;100.00
52625;BME280;38519;52.540;13.410;2023-01-10T06:54:16;100691.03;;;6.12;100.00
52625;BME280;38519;52.540;13.410;2023-01-10T06:56:42;100685.50;;;6.18;100.00
52625;BME280;38519;52.540;13.410;2023-01-10T06:59:07;100692.84;;;6.13;100.00
52625;BME280;38519;52.540;13.410;2023-01-10T07:01:32;100694.50;;;6.13;100.00
52625;BME280;38519;52.540;13.410;2023-01-10T07:03:58;100701.28;;;6.21;100.00
52625;BME280;38519;52.540;13.410;2023-01-10T07:06:23;100702.72;;;6.17;100.00
52625;BME280;38519;52.540;13.410;2023-01-10T07:08:48;100711.28;;;6.16;100.00
52625;BME280;38519;52.540;13.410;2023-01-10T07:11:14;100710.34;;;6.16;100.00
52625;BME280;38519;52.540;13.410;2023-01-10T07:13:39;100713.72;;;6.15;100.00
52625;BME280;38519;52.540;13.410;2023-01-10T07:16:12;100715.91;;;6.10;100.00
52625;BME280;38519;52.540;13.410;2023-01-10T07:18:38;100723.16;;;6.14;100.00
52625;BME280;38519;52.540;13.410;2023-01-10T07:21:04;100716.47;;;6.16;100.00
52625;BME280;38519;52.540;13.410;2023-01-10T07:23:29;100732.78;;;6.15;100.00
52625;BME280;38519;52.540;13.410;2023-01-10T07:26:00;100738.72;;;6.14;100.00
52625;BME280;38519;52.540;13.410;2023-01-10T07:28:26;100741.47;;;6.16;100.00
52625;BME280;38519;52.540;13.410;2023-01-10T07:30:52;100734.81;;;6.09;100.00
52625;BME280;38519;52.540;13.410;2023-01-10T07:33:18;100752.06;;;6.09;100.00
52625;BME280;38519;52.540;13.410;2023-01-10T07:35:43;100759.28;;;5.94;100.00
52625;BME280;38519;52.540;13.410;2023-01-10T07:38:08;100763.41;;;6.00;100.00
52625;BME280;38519;52.540;13.410;2023-01-10T07:40:34;100768.75;;;6.02;100.00
52625;BME280;38519;52.540;13.410;2023-01-10T07:42:59;100778.81;;;5.99;100.00
52625;BME280;38519;52.540;13.410;2023-01-10T07:45:25;100778.34;;;5.94;100.00
52625;BME280;38519;52.540;13.410;2023-01-10T07:47:55;100789.34;;;6.00;100.00
52625;BME280;38519;52.540;13.410;2023-01-10T07:50:20;100789.38;;;6.11;100.00
52625;BME280;38519;52.540;13.410;2023-01-10T07:52:45;100789.25;;;6.09;100.00
52625;BME280;38519;52.540;13.410;2023-01-10T07:55:11;100787.69;;;6.11;100.00
52625;BME280;38519;52.540;13.410;2023-01-10T07:57:36;100804.19;;;6.12;100.00
52625;BME280;38519;52.540;13.410;2023-01-10T08:00:02;100806.94;;;6.13;100.00
52625;BME280;38519;52.540;13.410;2023-01-10T08:02:28;100812.38;;;6.16;100.00
52625;BME280;38519;52.540;13.410;2023-01-10T08:04:54;100817.50;;;6.25;100.00
52625;BME280;38519;52.540;13.410;2023-01-10T08:07:19;100819.31;;;6.26;100.00
52625;BME280;38519;52.540;13.410;2023-01-10T08:09:44;100827.25;;;6.28;100.00
52625;BME280;38519;52.540;13.410;2023-01-10T08:12:11;100829.84;;;6.28;100.00
52625;BME280;38519;52.540;13.410;2023-01-10T08:14:36;100835.94;;;6.28;100.00
52625;BME280;38519;52.540;13.410;2023-01-10T08:17:01;100833.75;;;6.33;100.00
52625;BME280;38519;52.540;13.410;2023-01-10T08:19:26;100839.22;;;6.36;100.00
52625;BME280;38519;52.540;13.410;2023-01-10T08:21:53;100855.13;;;6.30;100.00
52625;BME280;38519;52.540;13.410;2023-01-10T08:24:18;100850.88;;;6.31;100.00
52625;BME280;38519;52.540;13.410;2023-01-10T08:26:44;100854.97;;;6.29;100.00
52625;BME280;38519;52.540;13.410;2023-01-10T08:29:10;100856.44;;;6.35;100.00
52625;BME280;38519;52.540;13.410;2023-01-10T08:31:35;100854.28;;;6.40;100.00
52625;BME280;38519;52.540;13.410;2023-01-10T08:34:00;100851.97;;;6.43;100.00
52625;BME280;38519;52.540;13.410;2023-01-10T08:36:26;100859.47;;;6.40;100.00
52625;BME280;38519;52.540;13.410;2023-01-10T08:38:55;100868.94;;;6.40;100.00
52625;BME280;38519;52.540;13.410;2023-01-10T08:41:21;100861.50;;;6.34;100.00
52625;BME280;38519;52.540;13.410;2023-01-10T08:43:50;100870.25;;;6.26;100.00
52625;BME280;38519;52.540;13.410;2023-01-10T08:46:15;100885.03;;;6.08;100.00
52625;BME280;38519;52.540;13.410;2023-01-10T08:48:43;100872.56;;;6.23;100.00
52625;BME280;38519;52.540;13.410;2023-01-10T08:51:09;100877.06;;;6.34;100.00
52625;BME280;38519;52.540;13.410;2023-01-10T08:53:35;100884.50;;;6.40;100.00
52625;BME280;38519;52.540;13.410;2023-01-10T08:56:00;100878.97;;;6.45;100.00
52625;BME280;38519;52.540;13.410;2023-01-10T08:58:25;100889.00;;;6.51;100.00
52625;BME280;38519;52.540;13.410;2023-01-10T09:00:50;100894.38;;;6.63;100.00
52625;BME280;38519;52.540;13.410;2023-01-10T09:03:16;100889.75;;;6.69;100.00
52625;BME280;38519;52.540;13.410;2023-01-10T09:05:43;100902.13;;;6.71;100.00
52625;BME280;38519;52.540;13.410;2023-01-10T09:08:08;100905.91;;;6.75;100.00
52625;BME280;38519;52.540;13.410;2023-01-10T09:10:33;100908.91;;;6.80;100.00
52625;BME280;38519;52.540;13.410;2023-01-10T09:12:59;100909.00;;;6.71;100.00
52625;BME280;38519;52.540;13.410;2023-01-10T09:15:29;100921.56;;;6.66;100.00
52625;BME280;38519;52.540;13.410;2023-01-10T09:17:56;100929.75;;;6.71;100.00
52625;BME280;38519;52.540;13.410;2023-01-10T09:20:23;100927.94;;;6.70;100.00
52625;BME280;38519;52.540;13.410;2023-01-10T09:22:48;100928.34;;;6.74;100.00
52625;BME280;38519;52.540;13.410;2023-01-10T09:25:13;100926.38;;;6.72;100.00
52625;BME280;38519;52.540;13.410;2023-01-10T09:27:39;100930.38;;;6.68;100.00
52625;BME280;38519;52.540;13.410;2023-01-10T09:30:04;100922.94;;;6.63;100.00
52625;BME280;38519;52.540;13.410;2023-01-10T09:32:30;100932.78;;;6.56;100.00
52625;BME280;38519;52.540;13.410;2023-01-10T09:34:55;100932.91;;;6.58;100.00
52625;BME280;38519;52.540;13.410;2023-01-10T09:37:20;100937.25;;;6.68;100.00
52625;BME280;38519;52.540;13.410;2023-01-10T09:39:45;100928.13;;;6.63;100.00
52625;BME280;38519;52.540;13.410;2023-01-10T09:52:23;100959.09;;;6.61;100.00
52625;BME280;38519;52.540;13.410;2023-01-10T09:54:51;100958.78;;;6.67;100.00
52625;BME280;38519;52.540;13.410;2023-01-10T09:57:19;100955.34;;;6.77;100.00
52625;BME280;38519;52.540;13.410;2023-01-10T09:59:44;100961.94;;;6.73;100.00
52625;BME280;38519;52.540;13.410;2023-01-10T10:04:45;100958.22;;;6.99;100.00
52625;BME280;38519;52.540;13.410;2023-01-10T10:07:16;100962.56;;;6.89;100.00
52625;BME280;38519;52.540;13.410;2023-01-10T10:09:41;100967.56;;;6.78;100.00
52625;BME280;38519;52.540;13.410;2023-01-10T10:17:51;100953.09;;;6.90;100.00
52625;BME280;38519;52.540;13.410;2023-01-10T10:35:39;100968.53;;;6.88;100.00
52625;BME280;38519;52.540;13.410;2023-01-10T10:38:19;100965.59;;;6.94;100.00
52625;BME280;38519;52.540;13.410;2023-01-10T10:40:46;100968.09;;;7.03;100.00
52625;BME280;38519;52.540;13.410;2023-01-10T10:43:14;100984.19;;;6.99;100.00
52625;BME280;38519;52.540;13.410;2023-01-10T10:48:20;100981.94;;;6.93;100.00
52625;BME280;38519;52.540;13.410;2023-01-10T10:51:33;100980.22;;;7.13;100.00
52625;BME280;38519;52.540;13.410;2023-01-10T10:53:36;100986.69;;;7.26;100.00
52625;BME280;38519;52.540;13.410;2023-01-10T10:56:02;100991.03;;;7.17;100.00
52625;BME280;38519;52.540;13.410;2023-01-10T10:58:28;100989.56;;;7.10;100.00
52625;BME280;38519;52.540;13.410;2023-01-10T11:00:56;100998.22;;;7.01;100.00
52625;BME280;38519;52.540;13.410;2023-01-10T11:05:49;101014.91;;;7.13;100.00
52625;BME280;38519;52.540;13.410;2023-01-10T11:08:16;101013.34;;;7.34;100.00
52625;BME280;38519;52.540;13.410;2023-01-10T11:10:43;101015.13;;;7.54;100.00
52625;BME280;38519;52.540;13.410;2023-01-10T11:15:42;101009.47;;;7.69;100.00
52625;BME280;38519;52.540;13.410;2023-01-10T11:18:12;101010.41;;;7.69;100.00
52625;BME280;38519;52.540;13.410;2023-01-10T11:20:45;100987.81;;;7.78;100.00
52625;BME280;38519;52.540;13.410;2023-01-10T11:23:11;100989.00;;;7.82;100.00
52625;BME280;38519;52.540;13.410;2023-01-10T11:25:45;100991.16;;;7.67;100.00
52625;BME280;38519;52.540;13.410;2023-01-10T11:28:11;100986.56;;;7.54;100.00
52625;BME280;38519;52.540;13.410;2023-01-10T11:30:38;100988.53;;;7.57;100.00
52625;BME280;38519;52.540;13.410;2023-01-10T11:33:04;100998.59;;;7.73;100.00
52625;BME280;38519;52.540;13.410;2023-01-10T11:35:32;101014.31;;;7.74;100.00
52625;BME280;38519;52.540;13.410;2023-01-10T11:40:24;101004.84;;;7.75;100.00
52625;BME280;38519;52.540;13.410;2023-01-10T11:42:51;101005.09;;;7.78;100.00
52625;BME280;38519;52.540;13.410;2023-01-10T11:48:26;101020.41;;;7.64;100.00
52625;BME280;38519;52.540;13.410;2023-01-10T11:50:40;101023.28;;;7.68;100.00
52625;BME280;38519;52.540;13.410;2023-01-10T11:53:06;101022.47;;;7.69;100.00
52625;BME280;38519;52.540;13.410;2023-01-10T11:55:33;101019.13;;;7.70;100.00
52625;BME280;38519;52.540;13.410;2023-01-10T12:00:45;101019.84;;;7.58;100.00
52625;BME280;38519;52.540;13.410;2023-01-10T12:03:16;101023.28;;;7.68;100.00
52625;BME280;38519;52.540;13.410;2023-01-10T12:05:48;101028.63;;;7.79;100.00
52625;BME280;38519;52.540;13.410;2023-01-10T12:08:24;101029.03;;;7.74;100.00
52625;BME280;38519;52.540;13.410;2023-01-10T12:11:05;101027.97;;;7.53;100.00
52625;BME280;38519;52.540;13.410;2023-01-10T12:13:50;101028.34;;;7.66;100.00
52625;BME280;38519;52.540;13.410;2023-01-10T12:18:48;101025.00;;;7.77;100.00
52625;BME280;38519;52.540;13.410;2023-01-10T12:21:14;101019.75;;;7.67;100.00
52625;BME280;38519;52.540;13.410;2023-01-10T12:23:41;101005.47;;;7.43;100.00
52625;BME280;38519;52.540;13.410;2023-01-10T12:26:08;101007.56;;;7.47;100.00
52625;BME280;38519;52.540;13.410;2023-01-10T12:28:37;101017.88;;;7.56;100.00
52625;BME280;38519;52.540;13.410;2023-01-10T12:31:03;101025.06;;;7.69;100.00
52625;BME280;38519;52.540;13.410;2023-01-10T12:33:34;101026.63;;;7.66;100.00
52625;BME280;38519;52.540;13.410;2023-01-10T12:36:10;101026.09;;;7.60;100.00
52625;BME280;38519;52.540;13.410;2023-01-10T12:38:38;101035.91;;;7.54;100.00
52625;BME280;38519;52.540;13.410;2023-01-10T12:44:19;101045.22;;;7.42;100.00
52625;BME280;38519;52.540;13.410;2023-01-10T12:46:57;101035.03;;;7.54;100.00
52625;BME280;38519;52.540;13.410;2023-01-10T12:49:28;101039.91;;;7.70;100.00
52625;BME280;38519;52.540;13.410;2023-01-10T12:51:55;101041.50;;;7.78;100.00
52625;BME280;38519;52.540;13.410;2023-01-10T12:54:23;101048.81;;;7.82;100.00
52625;BME280;38519;52.540;13.410;2023-01-10T12:56:50;101051.31;;;7.91;100.00
52625;BME280;38519;52.540;13.410;2023-01-10T12:59:21;101060.28;;;7.94;100.00
52625;BME280;38519;52.540;13.410;2023-01-10T13:01:50;101064.44;;;7.92;100.00
52625;BME280;38519;52.540;13.410;2023-01-10T13:04:17;101069.78;;;7.94;100.00
52625;BME280;38519;52.540;13.410;2023-01-10T13:06:45;101070.69;;;7.94;100.00
52625;BME280;38519;52.540;13.410;2023-01-10T13:09:21;101069.78;;;7.94;100.00
52625;BME280;38519;52.540;13.410;2023-01-10T13:14:18;101077.59;;;7.94;100.00
52625;BME280;38519;52.540;13.410;2023-01-10T13:16:49;101076.00;;;7.96;100.00
52625;BME280;38519;52.540;13.410;2023-01-10T13:19:21;101078.00;;;7.98;100.00
52625;BME280;38519;52.540;13.410;2023-01-10T13:21:47;101092.69;;;7.98;100.00
52625;BME280;38519;52.540;13.410;2023-01-10T13:26:57;101095.88;;;7.85;100.00
52625;BME280;38519;52.540;13.410;2023-01-10T13:31:48;101107.00;;;7.74;100.00
52625;BME280;38519;52.540;13.410;2023-01-10T13:34:16;101098.13;;;7.72;100.00
52625;BME280;38519;52.540;13.410;2023-01-10T13:36:51;101104.19;;;7.62;100.00
52625;BME280;38519;52.540;13.410;2023-01-10T13:39:21;101095.50;;;7.61;100.00
52625;BME280;38519;52.540;13.410;2023-01-10T13:45:14;101106.88;;;7.53;100.00
52625;BME280;38519;52.540;13.410;2023-01-10T14:06:47;101102.66;;;7.45;100.00
52625;BME280;38519;52.540;13.410;2023-01-10T14:08:58;101106.44;;;7.29;100.00
52625;BME280;38519;52.540;13.410;2023-01-10T14:11:25;101102.16;;;7.30;100.00
52625;BME280;38519;52.540;13.410;2023-01-10T14:13:55;101109.53;;;7.25;100.00
52625;BME280;38519;52.540;13.410;2023-01-10T14:16:37;101111.59;;;7.19;100.00
52625;BME280;38519;52.540;13.410;2023-01-10T14:19:19;101113.94;;;7.07;100.00
52625;BME280;38519;52.540;13.410;2023-01-10T14:21:47;101115.06;;;7.01;100.00
52625;BME280;38519;52.540;13.410;2023-01-10T14:24:34;101116.25;;;7.04;100.00
52625;BME280;38519;52.540;13.410;2023-01-10T14:27:04;101113.34;;;7.01;100.00
52625;BME280;38519;52.540;13.410;2023-01-10T14:29:31;101108.81;;;6.99;100.00
52625;BME280;38519;52.540;13.410;2023-01-10T14:31:58;101111.88;;;6.95;100.00
52625;BME280;38519;52.540;13.410;2023-01-10T14:34:25;101109.84;;;7.01;100.00
52625;BME280;38519;52.540;13.410;2023-01-10T14:36:54;101105.56;;;7.01;100.00
52625;BME280;38519;52.540;13.410;2023-01-10T14:39:21;101104.22;;;6.96;100.00